createdAt,value
2019-03-13T00:00:37.691Z,95667.97
2019-03-13T00:03:03.965Z,95661.91
2019-03-13T00:05:29.968Z,95662.59
2019-03-13T00:07:55.965Z,95658.41
2019-03-13T00:10:22.052Z,95648.02
2019-03-13T00:12:48.102Z,95647.27
2019-03-13T00:15:14.206Z,95642.54
2019-03-13T00:17:40.164Z,95624.58
2019-03-13T00:20:08.025Z,95620.66
2019-03-13T00:22:34.223Z,95636.55
2019-03-13T00:25:00.343Z,95620.80
2019-03-13T00:27:26.400Z,95615.45
2019-03-13T00:29:52.397Z,95616.69
2019-03-13T00:32:18.460Z,95618.59
2019-03-13T00:34:44.411Z,95607.82
2019-03-13T00:37:10.377Z,95603.24
2019-03-13T00:39:36.459Z,95599.09
2019-03-13T00:42:02.523Z,95594.69
2019-03-13T00:44:28.511Z,95593.97
2019-03-13T00:46:54.485Z,95578.58
2019-03-13T00:49:20.577Z,95585.50
2019-03-13T00:51:46.717Z,95580.38
2019-03-13T00:54:12.687Z,95574.47
2019-03-13T00:56:38.773Z,95566.07
2019-03-13T00:59:04.866Z,95566.69
2019-03-13T01:01:49.454Z,95555.63
2019-03-13T01:04:23.139Z,95551.19
2019-03-13T01:06:51.001Z,95556.38
2019-03-13T01:09:16.968Z,95548.98
2019-03-13T01:11:43.037Z,95539.22
2019-03-13T01:14:09.011Z,95542.31
2019-03-13T01:16:35.217Z,95545.71
2019-03-13T01:19:01.161Z,95534.86
2019-03-13T01:21:27.244Z,95531.88
2019-03-13T01:23:53.191Z,95526.97
2019-03-13T01:26:19.173Z,95535.08
2019-03-13T01:28:45.296Z,95522.25
2019-03-13T01:31:25.261Z,95505.85
2019-03-13T01:33:52.333Z,95518.03
2019-03-13T01:36:18.695Z,95510.69
2019-03-13T01:38:44.658Z,95507.27
2019-03-13T01:41:10.774Z,95507.95
2019-03-13T01:43:40.927Z,95510.07
2019-03-13T01:46:07.049Z,95505.57
2019-03-13T01:48:33.041Z,95507.62
2019-03-13T01:50:59.117Z,95500.78
2019-03-13T01:53:25.244Z,95501.90
2019-03-13T01:55:51.363Z,95489.43
2019-03-13T01:58:17.323Z,95498.84
2019-03-13T02:00:43.261Z,95502.26
2019-03-13T02:03:09.366Z,95495.30
2019-03-13T02:05:35.528Z,95493.00
2019-03-13T02:08:01.613Z,95491.23
2019-03-13T02:10:29.807Z,95491.02
2019-03-13T02:12:55.856Z,95487.31
2019-03-13T02:15:24.651Z,95455.20
2019-03-13T02:17:50.741Z,95460.34
2019-03-13T02:20:16.841Z,95467.61
2019-03-13T02:22:43.023Z,95469.21
2019-03-13T02:25:10.620Z,95463.78
2019-03-13T02:27:36.587Z,95440.59
2019-03-13T02:30:05.960Z,95461.88
2019-03-13T02:32:32.228Z,95448.88
2019-03-13T02:34:58.213Z,95450.78
2019-03-13T02:37:24.139Z,95445.34
2019-03-13T02:39:50.116Z,95444.02
2019-03-13T02:42:18.456Z,95439.56
2019-03-13T02:44:44.470Z,95447.89
2019-03-13T02:47:11.630Z,95438.27
2019-03-13T02:49:37.607Z,95437.95
2019-03-13T02:52:04.738Z,95438.02
2019-03-13T02:54:30.840Z,95434.48
2019-03-13T02:56:56.942Z,95432.08
2019-03-13T02:59:22.987Z,95440.88
2019-03-13T03:01:50.850Z,95436.20
2019-03-13T03:04:16.858Z,95439.62
2019-03-13T03:06:42.872Z,95438.22
2019-03-13T03:09:08.967Z,95435.50
2019-03-13T03:11:35.117Z,95433.38
2019-03-13T03:14:01.057Z,95437.52
2019-03-13T03:16:27.045Z,95426.95
2019-03-13T03:18:53.039Z,95420.45
2019-03-13T03:21:19.008Z,95418.87
2019-03-13T03:23:45.700Z,95416.97
2019-03-13T03:26:11.731Z,95421.38
2019-03-13T03:28:37.677Z,95421.23
2019-03-13T03:31:03.697Z,95402.22
2019-03-13T03:33:38.501Z,95406.31
2019-03-13T03:36:04.480Z,95404.69
2019-03-13T03:38:30.518Z,95400.02
2019-03-13T03:40:56.484Z,95402.17
2019-03-13T03:43:38.824Z,95397.14
2019-03-13T03:45:52.168Z,95387.20
2019-03-13T03:48:18.103Z,95404.02
2019-03-13T03:50:44.148Z,95401.27
2019-03-13T03:53:10.099Z,95397.41
2019-03-13T03:55:36.098Z,95399.71
2019-03-13T03:58:02.021Z,95387.00
2019-03-13T04:00:28.050Z,95381.63
2019-03-13T04:02:53.987Z,95372.34
2019-03-13T04:05:19.953Z,95368.28
2019-03-13T04:07:45.988Z,95361.92
2019-03-13T04:10:14.175Z,95377.24
2019-03-13T04:12:40.167Z,95364.70
2019-03-13T04:15:15.589Z,95370.10
2019-03-13T04:17:41.719Z,95383.14
2019-03-13T04:20:15.004Z,95376.27
2019-03-13T04:22:40.894Z,95364.39
2019-03-13T04:25:25.978Z,95364.88
2019-03-13T04:27:52.010Z,95373.52
2019-03-13T04:30:17.936Z,95359.36
2019-03-13T04:32:43.949Z,95350.56
2019-03-13T04:35:12.971Z,95354.45
2019-03-13T04:37:39.038Z,95349.89
2019-03-13T04:40:07.331Z,95346.63
2019-03-13T04:42:33.357Z,95338.80
2019-03-13T04:44:59.291Z,95339.80
2019-03-13T04:47:25.324Z,95332.77
2019-03-13T04:49:51.295Z,95332.62
2019-03-13T04:52:17.318Z,95336.20
2019-03-13T04:54:43.399Z,95340.75
2019-03-13T04:57:09.419Z,95333.41
2019-03-13T04:59:35.345Z,95339.12
2019-03-13T05:02:01.396Z,95330.64
2019-03-13T05:04:27.431Z,95318.56
2019-03-13T05:06:53.361Z,95325.57
2019-03-13T05:09:19.300Z,95320.86
2019-03-13T05:11:45.315Z,95327.36
2019-03-13T05:14:11.279Z,95328.67
2019-03-13T05:16:38.565Z,95330.28
2019-03-13T05:19:04.608Z,95330.46
2019-03-13T05:21:30.520Z,95326.03
2019-03-13T05:23:56.546Z,95322.27
2019-03-13T05:26:22.501Z,95326.35
2019-03-13T05:28:48.415Z,95329.92
2019-03-13T05:31:14.333Z,95323.37
2019-03-13T05:33:40.249Z,95312.27
2019-03-13T05:36:06.181Z,95306.09
2019-03-13T05:38:32.097Z,95311.45
2019-03-13T05:40:58.096Z,95307.53
2019-03-13T05:43:24.045Z,95300.48
2019-03-13T05:45:49.966Z,95309.28
2019-03-13T05:48:15.904Z,95297.22
2019-03-13T05:50:41.819Z,95301.44
2019-03-13T05:53:07.744Z,95303.05
2019-03-13T05:55:33.669Z,95303.66
2019-03-13T05:57:59.605Z,95300.39
2019-03-13T06:00:27.589Z,95314.74
2019-03-13T06:02:53.513Z,95305.91
2019-03-13T06:05:22.698Z,95305.69
2019-03-13T06:07:48.760Z,95292.63
2019-03-13T06:10:17.240Z,95290.17
2019-03-13T06:12:43.224Z,95290.17
2019-03-13T06:15:11.756Z,95299.63
2019-03-13T06:17:37.841Z,95287.55
2019-03-13T06:20:10.374Z,95269.56
2019-03-13T06:22:35.174Z,95280.31
2019-03-13T06:25:01.205Z,95281.27
2019-03-13T06:27:27.215Z,95275.38
2019-03-13T06:29:53.112Z,95280.59
2019-03-13T06:32:19.269Z,95265.53
2019-03-13T06:34:45.177Z,95269.92
2019-03-13T06:37:11.137Z,95274.30
2019-03-13T06:39:37.289Z,95279.88
2019-03-13T06:42:03.223Z,95278.34
2019-03-13T06:44:29.165Z,95278.32
2019-03-13T06:46:55.087Z,95282.36
2019-03-13T06:49:21.035Z,95284.30
2019-03-13T06:51:47.098Z,95289.84
2019-03-13T06:54:13.144Z,95272.52
2019-03-13T06:56:39.113Z,95274.42
2019-03-13T06:59:09.747Z,95282.42
2019-03-13T07:01:37.603Z,95277.14
2019-03-13T07:04:08.245Z,95281.34
2019-03-13T07:06:38.872Z,95283.78
2019-03-13T07:09:09.431Z,95270.98
2019-03-13T07:11:40.342Z,95281.61
2019-03-13T07:14:17.234Z,95285.69
2019-03-13T07:16:45.148Z,95284.20
2019-03-13T07:19:29.548Z,95283.50
2019-03-13T07:22:13.932Z,95284.32
2019-03-13T07:24:44.524Z,95292.27
2019-03-13T07:27:12.366Z,95286.86
2019-03-13T07:29:56.979Z,95283.39
2019-03-13T07:32:30.771Z,95277.67
2019-03-13T07:35:04.542Z,95274.20
2019-03-13T07:37:32.400Z,95285.78
2019-03-13T07:40:00.883Z,95283.09
2019-03-13T07:42:47.020Z,95292.53
2019-03-13T07:45:14.863Z,95283.04
2019-03-13T07:47:45.743Z,95264.84
2019-03-13T07:50:19.450Z,95272.78
2019-03-13T07:52:52.375Z,95259.17
2019-03-13T07:55:37.093Z,95262.24
2019-03-13T07:58:05.173Z,95267.75
2019-03-13T08:00:45.051Z,95267.37
2019-03-13T08:03:18.755Z,95262.08
2019-03-13T08:06:03.204Z,95261.55
2019-03-13T08:08:33.788Z,95262.01
2019-03-13T08:11:16.632Z,95259.50
2019-03-13T08:14:01.020Z,95266.31
2019-03-13T08:16:28.854Z,95267.10
2019-03-13T08:19:08.828Z,95264.30
2019-03-13T08:21:53.285Z,95260.00
2019-03-13T08:24:23.864Z,95260.14
2019-03-13T08:26:57.669Z,95261.38
2019-03-13T08:29:37.975Z,95267.07
2019-03-13T08:32:22.625Z,95270.95
2019-03-13T08:34:50.547Z,95267.14
2019-03-13T08:37:18.398Z,95272.34
2019-03-13T08:40:02.795Z,95262.98
2019-03-13T08:42:30.618Z,95259.98
2019-03-13T08:45:15.044Z,95267.17
2019-03-13T08:47:54.740Z,95265.48
2019-03-13T08:50:22.703Z,95264.12
2019-03-13T08:53:07.160Z,95272.48
2019-03-13T08:55:35.310Z,95281.09
2019-03-13T08:58:03.153Z,95271.24
2019-03-13T09:00:33.735Z,95280.75
2019-03-13T09:03:01.589Z,95284.50
2019-03-13T09:05:29.669Z,95288.42
2019-03-13T09:07:57.526Z,95291.69
2019-03-13T09:10:34.166Z,95299.99
2019-03-13T09:13:02.193Z,95308.02
2019-03-13T09:15:36.015Z,95313.59
2019-03-13T09:18:09.677Z,95324.45
2019-03-13T09:20:37.628Z,95328.47
2019-03-13T09:23:20.545Z,95334.19
2019-03-13T09:25:54.177Z,95348.25
2019-03-13T09:31:09.944Z,95347.49
2019-03-13T09:33:40.804Z,95345.58
2019-03-13T09:36:11.471Z,95354.55
2019-03-13T09:38:45.897Z,95344.02
2019-03-13T09:41:19.517Z,95352.23
2019-03-13T09:43:59.744Z,95341.12
2019-03-13T09:46:28.951Z,95340.00
2019-03-13T09:48:59.593Z,95332.42
2019-03-13T09:51:30.492Z,95315.95
2019-03-13T09:54:01.057Z,95318.94
2019-03-13T09:56:29.175Z,95301.83
2019-03-13T09:59:04.659Z,95304.01
2019-03-13T10:01:38.529Z,95307.63
2019-03-13T10:04:12.174Z,95314.00
2019-03-13T10:06:58.098Z,95309.74
2019-03-13T10:09:29.183Z,95305.45
2019-03-13T10:12:13.746Z,95306.09
2019-03-13T10:14:41.575Z,95302.69
2019-03-13T10:17:12.181Z,95304.58
2019-03-13T10:19:43.149Z,95303.70
2019-03-13T10:22:15.828Z,95306.08
2019-03-13T10:24:43.670Z,95313.08
2019-03-13T10:27:11.722Z,95313.42
2019-03-13T10:29:42.834Z,95311.29
2019-03-13T10:32:13.647Z,95307.94
2019-03-13T10:34:44.416Z,95299.05
2019-03-13T10:37:12.458Z,95298.98
2019-03-13T10:39:40.418Z,95294.97
2019-03-13T10:42:11.260Z,95292.49
2019-03-13T10:44:41.860Z,95309.05
2019-03-13T10:47:26.644Z,95303.07
2019-03-13T10:49:54.584Z,95306.93
2019-03-13T10:52:28.298Z,95312.55
2019-03-13T10:54:56.169Z,95315.25
2019-03-13T10:57:40.596Z,95314.53
2019-03-13T11:00:30.203Z,95312.85
2019-03-13T11:03:06.934Z,95312.92
2019-03-13T11:05:34.790Z,95313.37
2019-03-13T11:08:11.889Z,95310.52
2019-03-13T11:10:45.730Z,95307.34
2019-03-13T11:13:13.591Z,95306.80
2019-03-13T11:15:53.674Z,95305.23
2019-03-13T11:18:39.699Z,95308.63
2019-03-13T11:21:07.571Z,95304.02
2019-03-13T11:23:37.350Z,95295.25
2019-03-13T11:26:09.907Z,95294.27
2019-03-13T11:28:46.674Z,95290.58
2019-03-13T11:31:17.310Z,95291.89
2019-03-13T11:33:46.772Z,95288.59
2019-03-13T11:36:20.435Z,95287.91
2019-03-13T11:39:05.153Z,95286.03
2019-03-13T11:41:33.121Z,95286.47
2019-03-13T11:44:07.549Z,95288.46
2019-03-13T11:46:52.356Z,95293.27
2019-03-13T11:49:20.321Z,95290.66
2019-03-13T11:51:51.019Z,95284.72
2019-03-13T11:54:27.782Z,95283.77
2019-03-13T11:57:14.078Z,95276.85
2019-03-13T11:59:42.059Z,95284.02
2019-03-13T12:02:22.075Z,95277.45
2019-03-13T12:05:06.754Z,95274.83
2019-03-13T12:07:34.807Z,95275.84
2019-03-13T12:10:11.814Z,95284.91
2019-03-13T12:12:48.541Z,95267.34
2019-03-13T12:15:16.560Z,95271.41
2019-03-13T12:18:02.436Z,95268.45
2019-03-13T12:20:33.301Z,95272.72
2019-03-13T12:23:10.259Z,95262.72
2019-03-13T12:25:41.046Z,95262.34
2019-03-13T12:28:14.893Z,95265.92
2019-03-13T12:30:43.137Z,95257.66
2019-03-13T12:33:26.178Z,95259.41
2019-03-13T12:36:10.648Z,95257.38
2019-03-13T12:38:41.398Z,95259.45
2019-03-13T12:41:09.274Z,95249.45
2019-03-13T12:43:53.801Z,95245.32
2019-03-13T12:46:27.432Z,95255.81
2019-03-13T12:49:02.592Z,95254.20
2019-03-13T12:51:39.602Z,95257.33
2019-03-13T12:54:07.598Z,95249.34
2019-03-13T12:56:41.743Z,95245.08
2019-03-13T12:59:12.816Z,95247.64
2019-03-13T13:01:43.561Z,95244.70
2019-03-13T13:04:17.426Z,95240.07
2019-03-13T13:06:57.291Z,95236.56
2019-03-13T13:09:43.207Z,95234.57
2019-03-13T13:12:11.276Z,95231.26
2019-03-13T13:14:39.203Z,95234.94
2019-03-13T13:17:19.093Z,95229.06
2019-03-13T13:19:45.022Z,95225.86
2019-03-13T13:22:11.075Z,95221.72
2019-03-13T13:24:37.215Z,95218.70
2019-03-13T13:27:03.470Z,95213.69
2019-03-13T13:29:29.659Z,95213.63
2019-03-13T13:31:55.815Z,95214.87
2019-03-13T13:34:22.056Z,95210.94
2019-03-13T13:36:48.303Z,95211.85
2019-03-13T13:39:14.424Z,95208.73
2019-03-13T13:41:40.665Z,95213.59
2019-03-13T13:44:10.053Z,95216.32
2019-03-13T13:46:36.082Z,95221.02
2019-03-13T13:49:02.095Z,95222.42
2019-03-13T13:51:28.375Z,95217.20
2019-03-13T13:53:55.958Z,95217.62
2019-03-13T13:56:22.336Z,95218.88
2019-03-13T13:58:48.509Z,95209.97
2019-03-13T14:01:14.715Z,95213.22
2019-03-13T14:03:40.914Z,95219.98
2019-03-13T14:06:07.193Z,95222.74
2019-03-13T14:08:33.478Z,95215.09
2019-03-13T14:10:59.737Z,95218.14
2019-03-13T14:13:25.833Z,95216.30
2019-03-13T14:15:52.014Z,95217.22
2019-03-13T14:18:18.281Z,95210.77
2019-03-13T14:20:44.380Z,95201.87
2019-03-13T14:23:13.307Z,95209.26
2019-03-13T14:25:39.637Z,95210.90
2019-03-13T14:28:05.673Z,95213.91
2019-03-13T14:30:31.762Z,95208.48
2019-03-13T14:32:57.917Z,95212.33
2019-03-13T14:35:23.860Z,95214.26
2019-03-13T14:37:49.899Z,95207.69
2019-03-13T14:40:22.391Z,95203.55
2019-03-13T14:43:24.254Z,95202.73
2019-03-13T14:45:50.485Z,95202.03
2019-03-13T14:48:16.668Z,95208.73
2019-03-13T14:50:42.830Z,95204.58
2019-03-13T14:53:09.140Z,95204.58
2019-03-13T14:55:35.315Z,95206.19
2019-03-13T14:58:01.615Z,95189.41
2019-03-13T15:00:27.941Z,95196.30
2019-03-13T15:02:54.265Z,95198.30
2019-03-13T15:05:22.538Z,95191.04
2019-03-13T15:07:48.816Z,95187.39
2019-03-13T15:10:18.709Z,95189.43
2019-03-13T15:12:45.165Z,95190.42
2019-03-13T15:15:15.574Z,95194.69
2019-03-13T15:17:41.644Z,95183.16
2019-03-13T15:20:11.196Z,95180.52
2019-03-13T15:22:37.489Z,95181.14
2019-03-13T15:25:05.451Z,95175.27
2019-03-13T15:27:31.753Z,95175.95
2019-03-13T15:29:58.055Z,95174.64
2019-03-13T15:32:25.577Z,95171.92
2019-03-13T15:34:51.935Z,95176.66
2019-03-13T15:37:18.316Z,95161.18
2019-03-13T15:39:47.636Z,95181.28
2019-03-13T15:42:13.620Z,95178.44
2019-03-13T15:44:39.917Z,95182.97
2019-03-13T15:47:06.171Z,95186.42
2019-03-13T15:49:32.482Z,95180.67
2019-03-13T15:51:58.775Z,95184.61
2019-03-13T15:54:25.055Z,95179.03
2019-03-13T15:57:03.638Z,95183.80
2019-03-13T16:20:49.374Z,95202.71
2019-03-13T16:23:17.494Z,95201.80
2019-03-13T16:25:43.678Z,95210.37
2019-03-13T16:28:09.919Z,95209.45
2019-03-13T16:30:58.162Z,95205.91
2019-03-13T16:33:24.457Z,95207.22
2019-03-13T16:35:54.738Z,95212.05
2019-03-13T16:38:20.872Z,95216.78
2019-03-13T16:40:47.178Z,95214.94
2019-03-13T16:43:13.447Z,95216.95
2019-03-13T16:45:39.749Z,95218.65
2019-03-13T16:48:06.132Z,95223.22
2019-03-13T16:50:33.812Z,95228.47
2019-03-13T16:52:59.997Z,95226.59
2019-03-13T16:55:26.382Z,95226.30
2019-03-13T16:57:52.670Z,95220.75
2019-03-13T17:00:25.785Z,95221.05
2019-03-13T17:02:52.031Z,95223.38
2019-03-13T17:05:18.405Z,95227.18
2019-03-13T17:07:44.740Z,95224.13
2019-03-13T17:10:13.671Z,95228.75
2019-03-13T17:12:39.956Z,95220.97
2019-03-13T17:15:12.694Z,95218.70
2019-03-13T17:17:41.536Z,95215.09
2019-03-13T17:20:11.497Z,95206.30
2019-03-13T17:22:39.581Z,95213.55
2019-03-13T17:25:09.293Z,95216.86
2019-03-13T17:27:40.891Z,95218.92
2019-03-13T17:30:16.241Z,95222.52
2019-03-13T17:32:42.562Z,95227.97
2019-03-13T17:35:08.914Z,95226.32
2019-03-13T17:37:35.361Z,95220.28
2019-03-13T17:40:01.758Z,95225.39
2019-03-13T17:42:28.121Z,95224.17
2019-03-13T17:44:54.347Z,95229.78
2019-03-13T17:47:20.632Z,95228.03
2019-03-13T17:49:47.004Z,95229.30
2019-03-13T17:52:23.613Z,95228.86
2019-03-13T17:54:49.933Z,95233.17
2019-03-13T17:57:18.337Z,95234.88
2019-03-13T17:59:47.970Z,95230.80
2019-03-13T18:02:14.304Z,95229.24
2019-03-13T18:04:41.117Z,95234.19
2019-03-13T18:07:10.256Z,95228.31
2019-03-13T18:09:38.319Z,95231.38
2019-03-13T18:12:04.656Z,95221.64
2019-03-13T18:14:32.845Z,95217.13
2019-03-13T18:17:01.030Z,95225.52
2019-03-13T18:19:27.278Z,95225.27
2019-03-13T18:21:56.815Z,95215.02
2019-03-13T18:24:35.816Z,95215.64
2019-03-13T18:26:56.394Z,95223.69
2019-03-13T18:29:24.478Z,95219.38
2019-03-13T18:31:50.729Z,95213.20
2019-03-13T18:34:19.198Z,95213.50
2019-03-13T18:36:48.687Z,95218.45
2019-03-13T18:39:14.909Z,95212.77
2019-03-13T18:41:43.102Z,95215.13
2019-03-13T18:44:09.403Z,95211.20
2019-03-13T18:46:35.724Z,95220.91
2019-03-13T18:49:02.101Z,95221.28
2019-03-13T18:51:28.450Z,95204.63
2019-03-13T18:53:54.716Z,95207.63
2019-03-13T18:56:21.169Z,95206.99
2019-03-13T18:58:47.527Z,95212.61
2019-03-13T19:01:13.790Z,95207.11
2019-03-13T19:03:42.636Z,95208.42
2019-03-13T19:06:08.988Z,95209.09
2019-03-13T19:08:42.589Z,95208.34
2019-03-13T19:20:12.333Z,95202.22
2019-03-13T19:22:38.867Z,95202.70
2019-03-13T19:25:07.280Z,95203.71
2019-03-13T19:27:35.513Z,95204.42
2019-03-13T19:31:12.011Z,95204.35
2019-03-13T19:34:06.857Z,95181.12
2019-03-13T19:36:24.160Z,95202.73
2019-03-13T19:52:57.847Z,95198.36
2019-03-13T19:55:24.779Z,95201.66
2019-03-13T19:57:51.389Z,95204.27
2019-03-13T20:00:21.362Z,95202.33
2019-03-13T20:02:59.853Z,95205.25
2019-03-13T20:05:22.070Z,95206.06
2019-03-13T20:07:59.338Z,95206.74
2019-03-13T20:10:26.959Z,95207.59
2019-03-13T20:15:03.561Z,95210.59
2019-03-13T20:15:55.110Z,95213.55
2019-03-13T20:18:21.351Z,95213.84
2019-03-13T20:20:47.683Z,95207.97
2019-03-13T20:23:16.180Z,95210.28
2019-03-13T20:25:42.444Z,95207.33
2019-03-13T20:28:08.760Z,95210.77
2019-03-13T20:58:11.214Z,95179.19
2019-03-13T21:00:37.458Z,95189.44
2019-03-13T21:03:03.866Z,95191.23
2019-03-13T21:05:30.119Z,95184.69
2019-03-13T21:07:56.213Z,95184.08
2019-03-13T21:10:25.193Z,95178.52
2019-03-13T21:13:03.833Z,95171.85
2019-03-13T21:15:30.230Z,95171.40
2019-03-13T21:20:21.436Z,95172.89
2019-03-13T21:22:47.898Z,95158.98
2019-03-13T21:25:24.818Z,95164.41
2019-03-13T21:28:59.736Z,95168.18
2019-03-13T21:31:26.278Z,95163.13
2019-03-13T21:33:53.092Z,95157.93
2019-03-13T21:36:21.803Z,95158.11
2019-03-13T21:38:48.255Z,95153.58
2019-03-13T21:41:39.736Z,95158.84
2019-03-13T21:44:12.304Z,95157.72
2019-03-13T21:46:36.075Z,95151.55
2019-03-13T21:49:02.498Z,95159.24
2019-03-13T21:51:29.003Z,95158.23
2019-03-13T21:53:55.549Z,95155.95
2019-03-13T21:56:21.728Z,95165.94
2019-03-13T21:58:48.314Z,95159.88
2019-03-13T22:01:20.085Z,95155.80
2019-03-13T22:03:43.036Z,95150.45
2019-03-13T22:06:09.415Z,95154.56
2019-03-13T22:08:42.564Z,95152.45
2019-03-13T22:11:05.937Z,95153.16
2019-03-13T22:13:39.327Z,95153.16
2019-03-13T22:16:04.267Z,95150.55
2019-03-13T22:18:30.193Z,95155.77
2019-03-13T22:20:56.108Z,95149.23
2019-03-13T22:23:22.038Z,95145.98
2019-03-13T22:25:48.496Z,95140.30
2019-03-13T22:28:17.512Z,95140.05
2019-03-13T22:30:43.821Z,95144.13
2019-03-13T22:33:09.764Z,95139.35
2019-03-13T22:35:35.683Z,95139.30
2019-03-13T22:38:01.773Z,95138.50
2019-03-13T22:40:27.791Z,95131.99
2019-03-13T22:42:53.717Z,95132.66
2019-03-13T22:45:20.329Z,95138.05
2019-03-13T22:47:46.352Z,95136.04
2019-03-13T22:50:14.178Z,95137.69
2019-03-13T22:52:40.127Z,95136.19
2019-03-13T22:55:08.324Z,95127.73
2019-03-13T22:57:34.233Z,95127.73
2019-03-13T23:00:00.391Z,95134.28
2019-03-13T23:02:26.607Z,95130.72
2019-03-13T23:04:52.533Z,95137.59
2019-03-13T23:07:18.469Z,95132.48
2019-03-13T23:09:47.254Z,95135.92
2019-03-13T23:12:13.210Z,95133.30
2019-03-13T23:14:39.131Z,95135.73
2019-03-13T23:17:05.188Z,95132.30
2019-03-13T23:19:31.142Z,95134.73
2019-03-13T23:21:57.083Z,95129.35
2019-03-13T23:24:23.007Z,95131.05
2019-03-13T23:26:50.724Z,95129.75
2019-03-13T23:29:16.668Z,95136.89
2019-03-13T23:31:43.003Z,95135.43
2019-03-13T23:34:08.970Z,95129.13
2019-03-13T23:36:34.875Z,95131.39
2019-03-13T23:39:00.827Z,95132.66
2019-03-13T23:41:32.124Z,95130.35
2019-03-13T23:43:58.264Z,95125.58
2019-03-13T23:46:24.297Z,95130.81
2019-03-13T23:48:50.231Z,95130.66
2019-03-13T23:51:16.153Z,95129.20
2019-03-13T23:53:43.389Z,95130.14
2019-03-13T23:56:09.335Z,95126.55
2019-03-13T23:58:35.310Z,95120.50
